createdAt,value
2022-10-13T00:00:48.217Z,14.47
2022-10-13T00:03:16.230Z,14.43
2022-10-13T00:05:45.552Z,14.43
2022-10-13T00:08:13.376Z,14.39
2022-10-13T00:10:46.846Z,14.39
2022-10-13T00:13:14.366Z,14.43
2022-10-13T00:15:45.111Z,14.44
2022-10-13T00:18:12.514Z,14.40
2022-10-13T00:20:44.924Z,14.47
2022-10-13T00:23:11.951Z,14.45
2022-10-13T00:25:42.178Z,14.49
2022-10-13T00:28:09.233Z,14.52
2022-10-13T00:30:36.550Z,14.50
2022-10-13T00:33:03.812Z,14.43
2022-10-13T00:35:30.634Z,14.40
2022-10-13T00:37:57.265Z,14.38
2022-10-13T00:40:27.902Z,14.35
2022-10-13T00:42:54.575Z,14.39
2022-10-13T00:45:24.913Z,14.34
2022-10-13T00:48:00.664Z,14.24
2022-10-13T00:50:37.816Z,14.21
2022-10-13T00:53:05.818Z,14.11
2022-10-13T00:55:36.621Z,14.01
2022-10-13T00:58:06.572Z,13.95
2022-10-13T01:00:34.802Z,13.93
2022-10-13T01:03:02.626Z,13.92
2022-10-13T01:05:30.485Z,13.91
2022-10-13T01:07:58.024Z,13.97
2022-10-13T01:10:42.719Z,13.90
2022-10-13T01:13:20.672Z,13.84
2022-10-13T01:15:54.323Z,13.72
2022-10-13T01:18:41.159Z,13.58
2022-10-13T01:21:12.124Z,13.55
2022-10-13T01:23:44.600Z,13.51
2022-10-13T01:26:56.905Z,13.51
2022-10-13T01:29:46.704Z,13.50
2022-10-13T01:32:50.830Z,13.59
2022-10-13T01:35:58.911Z,13.59
2022-10-13T01:38:40.918Z,13.62
2022-10-13T01:41:15.098Z,13.65
2022-10-13T01:44:00.243Z,13.70
2022-10-13T01:46:30.998Z,13.75
2022-10-13T01:49:01.871Z,13.83
2022-10-13T01:51:30.506Z,13.94
2022-10-13T01:53:57.215Z,13.94
2022-10-13T01:56:23.961Z,13.92
2022-10-13T01:58:53.177Z,14.02
2022-10-13T02:01:39.575Z,13.96
2022-10-13T02:04:25.909Z,14.00
2022-10-13T02:07:16.987Z,14.00
2022-10-13T02:10:01.761Z,14.00
2022-10-13T02:12:39.828Z,13.96
2022-10-13T02:15:11.830Z,14.00
2022-10-13T02:17:42.085Z,14.05
2022-10-13T02:20:10.161Z,14.05
2022-10-13T02:22:46.829Z,14.03
2022-10-13T02:25:13.503Z,13.96
2022-10-13T02:27:40.643Z,13.87
2022-10-13T02:30:07.980Z,13.87
2022-10-13T02:32:34.661Z,13.88
2022-10-13T02:35:01.329Z,13.82
2022-10-13T02:37:28.017Z,13.76
2022-10-13T02:39:54.833Z,13.72
2022-10-13T02:42:21.768Z,13.74
2022-10-13T02:44:48.658Z,13.79
2022-10-13T02:47:15.343Z,13.85
2022-10-13T02:49:41.953Z,13.96
2022-10-13T02:52:08.610Z,14.01
2022-10-13T02:54:42.935Z,14.08
2022-10-13T02:57:09.784Z,14.05
2022-10-13T02:59:36.375Z,13.98
2022-10-13T03:02:03.013Z,13.97
2022-10-13T03:04:30.166Z,13.99
2022-10-13T03:06:59.064Z,14.00
2022-10-13T03:09:25.704Z,13.96
2022-10-13T03:11:52.362Z,13.92
2022-10-13T03:14:19.111Z,13.83
2022-10-13T03:16:45.813Z,13.83
2022-10-13T03:19:13.048Z,13.82
2022-10-13T03:21:39.651Z,13.88
2022-10-13T03:24:06.987Z,13.88
2022-10-13T03:26:34.903Z,13.84
2022-10-13T03:29:02.322Z,13.83
2022-10-13T03:31:29.231Z,13.87
2022-10-13T03:34:02.006Z,13.93
2022-10-13T03:36:28.704Z,13.96
2022-10-13T03:38:55.322Z,13.97
2022-10-13T03:41:22.491Z,13.93
2022-10-13T03:43:52.407Z,13.82
2022-10-13T03:46:19.163Z,13.76
2022-10-13T03:48:47.729Z,13.70
2022-10-13T03:51:18.144Z,13.76
2022-10-13T03:53:46.232Z,13.77
2022-10-13T03:56:15.915Z,13.83
2022-10-13T03:58:55.312Z,13.94
2022-10-13T04:01:24.011Z,13.89
2022-10-13T04:03:53.804Z,13.91
2022-10-13T04:06:20.436Z,13.85
2022-10-13T04:08:47.086Z,13.75
2022-10-13T04:11:15.306Z,13.64
2022-10-13T04:13:44.119Z,13.51
2022-10-13T04:16:16.865Z,13.42
2022-10-13T04:18:45.003Z,13.49
2022-10-13T04:21:15.117Z,13.55
2022-10-13T04:23:42.329Z,13.64
2022-10-13T04:26:19.249Z,13.66
2022-10-13T04:28:48.048Z,13.75
2022-10-13T04:31:14.799Z,13.77
2022-10-13T04:33:41.745Z,13.84
2022-10-13T04:36:11.173Z,13.93
2022-10-13T04:38:37.991Z,14.04
2022-10-13T04:41:06.341Z,14.13
2022-10-13T04:43:33.906Z,14.23
2022-10-13T04:46:03.195Z,14.30
2022-10-13T04:48:29.867Z,14.41
2022-10-13T04:51:14.732Z,14.44
2022-10-13T04:54:01.472Z,14.39
2022-10-13T04:56:28.851Z,14.36
2022-10-13T04:59:00.011Z,14.38
2022-10-13T05:01:26.669Z,14.45
2022-10-13T05:03:58.932Z,14.47
2022-10-13T05:06:31.090Z,14.46
2022-10-13T05:08:58.156Z,14.46
2022-10-13T05:11:28.844Z,14.46
2022-10-13T05:13:56.888Z,14.42
2022-10-13T05:16:24.772Z,14.39
2022-10-13T05:18:53.675Z,14.37
2022-10-13T05:21:26.605Z,14.39
2022-10-13T05:23:55.519Z,14.39
2022-10-13T05:26:28.498Z,14.36
2022-10-13T05:28:59.107Z,14.37
2022-10-13T05:31:31.112Z,14.26
2022-10-13T05:33:59.633Z,14.17
2022-10-13T05:36:35.301Z,14.26
2022-10-13T05:39:04.991Z,14.32
2022-10-13T05:41:32.355Z,14.40
2022-10-13T05:44:06.305Z,14.40
2022-10-13T05:46:33.237Z,14.40
2022-10-13T05:49:00.056Z,14.49
2022-10-13T05:51:29.912Z,14.50
2022-10-13T05:54:30.824Z,14.54
2022-10-13T05:57:02.851Z,14.58
2022-10-13T05:59:33.649Z,14.63
2022-10-13T06:02:01.932Z,14.66
2022-10-13T06:04:39.722Z,14.73
2022-10-13T06:07:06.539Z,14.78
2022-10-13T06:09:35.929Z,14.84
2022-10-13T06:12:02.568Z,14.89
2022-10-13T06:14:29.232Z,14.89
2022-10-13T06:16:56.168Z,14.90
2022-10-13T06:19:22.764Z,14.93
2022-10-13T06:21:49.485Z,14.95
2022-10-13T06:24:16.273Z,15.00
2022-10-13T06:26:43.060Z,15.08
2022-10-13T06:29:09.699Z,15.12
2022-10-13T06:31:36.467Z,15.06
2022-10-13T06:34:04.357Z,15.07
2022-10-13T06:36:31.466Z,15.03
2022-10-13T06:38:58.120Z,15.00
2022-10-13T06:41:24.918Z,14.96
2022-10-13T06:43:51.572Z,14.97
2022-10-13T06:46:18.277Z,15.00
2022-10-13T06:48:44.972Z,15.05
2022-10-13T06:51:12.194Z,15.07
2022-10-13T06:53:38.896Z,15.02
2022-10-13T06:56:07.083Z,15.05
2022-10-13T06:58:37.144Z,15.12
2022-10-13T07:01:04.736Z,15.21
2022-10-13T07:03:31.769Z,15.26
2022-10-13T07:06:03.384Z,15.30
2022-10-13T07:08:31.098Z,15.31
2022-10-13T07:10:58.177Z,15.40
2022-10-13T07:13:24.757Z,15.46
2022-10-13T07:15:51.418Z,15.55
2022-10-13T07:18:18.098Z,15.67
2022-10-13T07:20:44.818Z,15.79
2022-10-13T07:23:11.443Z,15.88
2022-10-13T07:25:38.060Z,15.75
2022-10-13T07:28:05.179Z,15.77
2022-10-13T07:30:31.793Z,15.73
2022-10-13T07:32:59.972Z,15.70
2022-10-13T07:35:30.452Z,15.73
2022-10-13T07:37:57.842Z,15.84
2022-10-13T07:40:24.797Z,15.99
2022-10-13T07:42:51.445Z,16.10
2022-10-13T07:45:20.808Z,16.18
2022-10-13T07:47:47.506Z,16.25
2022-10-13T07:50:14.253Z,16.30
2022-10-13T07:52:40.990Z,16.36
2022-10-13T07:55:11.019Z,16.53
2022-10-13T07:57:37.786Z,16.71
2022-10-13T08:00:06.102Z,16.83
2022-10-13T08:02:39.208Z,16.82
2022-10-13T08:05:07.121Z,16.80
2022-10-13T08:07:33.810Z,16.87
2022-10-13T08:10:00.433Z,16.86
2022-10-13T08:12:27.124Z,16.85
2022-10-13T08:14:53.898Z,16.85
2022-10-13T08:17:21.123Z,16.86
2022-10-13T08:19:48.140Z,16.83
2022-10-13T08:22:14.891Z,16.99
2022-10-13T08:24:41.532Z,17.12
2022-10-13T08:27:11.530Z,17.16
2022-10-13T08:29:38.666Z,17.29
2022-10-13T08:32:05.413Z,17.24
2022-10-13T08:34:33.935Z,17.33
2022-10-13T08:37:00.617Z,17.36
2022-10-13T08:39:27.325Z,17.41
2022-10-13T08:41:55.094Z,17.55
2022-10-13T08:47:34.155Z,17.60
2022-10-13T08:50:04.856Z,17.67
2022-10-13T08:52:49.060Z,17.65
2022-10-13T08:55:24.589Z,17.65
2022-10-13T08:57:51.316Z,17.57
2022-10-13T09:00:20.033Z,17.50
2022-10-13T09:02:49.897Z,17.55
2022-10-13T09:05:28.736Z,17.50
2022-10-13T09:08:11.322Z,17.58
2022-10-13T09:10:47.851Z,17.66
2022-10-13T09:13:18.463Z,17.65
2022-10-13T09:15:50.413Z,17.76
2022-10-13T09:18:17.062Z,17.78
2022-10-13T09:20:43.770Z,17.79
2022-10-13T09:23:22.730Z,17.97
2022-10-13T09:25:52.607Z,18.11
2022-10-13T09:28:30.973Z,18.39
2022-10-13T09:31:09.158Z,18.54
2022-10-13T09:33:38.514Z,18.80
2022-10-13T09:36:14.431Z,19.15
2022-10-13T09:38:44.582Z,19.29
2022-10-13T09:41:21.802Z,19.35
2022-10-13T09:43:48.410Z,19.27
2022-10-13T09:46:27.769Z,19.32
2022-10-13T09:48:58.967Z,19.36
2022-10-13T09:51:44.907Z,19.41
2022-10-13T09:54:33.854Z,19.45
2022-10-13T09:57:07.042Z,19.49
2022-10-13T09:59:39.591Z,19.31
2022-10-13T10:02:34.028Z,19.33
2022-10-13T10:05:07.627Z,19.06
2022-10-13T10:07:34.429Z,19.10
2022-10-13T10:10:05.717Z,19.22
2022-10-13T10:12:37.405Z,19.18
2022-10-13T10:15:20.218Z,19.25
2022-10-13T10:17:54.168Z,19.19
2022-10-13T10:20:39.526Z,19.22
2022-10-13T10:23:14.429Z,19.49
2022-10-13T10:25:49.260Z,19.47
2022-10-13T10:28:40.764Z,19.34
2022-10-13T10:31:33.639Z,19.34
2022-10-13T10:34:15.348Z,19.22
2022-10-13T10:37:03.753Z,19.21
2022-10-13T10:39:32.102Z,19.08
2022-10-13T10:41:58.730Z,19.00
2022-10-13T10:44:32.881Z,19.35
2022-10-13T10:47:05.412Z,19.56
2022-10-13T10:49:39.225Z,19.85
2022-10-13T10:52:10.131Z,20.17
2022-10-13T10:55:02.633Z,20.53
2022-10-13T10:57:40.329Z,20.74
2022-10-13T11:00:13.511Z,20.95
2022-10-13T11:02:49.145Z,20.87
2022-10-13T11:05:16.555Z,20.78
2022-10-13T11:07:43.123Z,20.82
2022-10-13T11:10:17.855Z,20.61
2022-10-13T11:12:50.697Z,20.62
2022-10-13T11:15:24.549Z,20.77
2022-10-13T11:17:52.176Z,20.87
2022-10-13T11:20:21.859Z,20.84
2022-10-13T11:22:57.611Z,20.85
2022-10-13T11:25:39.905Z,20.84
2022-10-13T11:28:22.287Z,20.93
2022-10-13T11:30:55.248Z,21.23
2022-10-13T11:33:40.287Z,21.36
2022-10-13T11:36:41.851Z,21.43
2022-10-13T11:42:16.198Z,21.17
2022-10-13T11:44:45.718Z,21.11
2022-10-13T11:47:20.345Z,21.03
2022-10-13T11:50:27.197Z,21.13
2022-10-13T11:53:02.987Z,21.05
2022-10-13T11:55:37.172Z,20.91
2022-10-13T11:58:25.412Z,20.74
2022-10-13T12:00:57.869Z,20.63
2022-10-13T12:03:39.545Z,20.59
2022-10-13T12:06:32.126Z,20.74
2022-10-13T12:09:02.206Z,20.88
2022-10-13T12:11:36.483Z,21.03
2022-10-13T12:14:07.540Z,21.18
2022-10-13T12:16:34.541Z,21.02
2022-10-13T12:19:22.260Z,21.33
2022-10-13T12:21:56.236Z,21.42
2022-10-13T12:24:24.982Z,21.70
2022-10-13T12:26:52.086Z,21.92
2022-10-13T12:29:22.802Z,21.99
2022-10-13T12:31:50.942Z,22.19
2022-10-13T12:34:19.206Z,22.12
2022-10-13T12:39:27.012Z,22.04
2022-10-13T12:41:55.314Z,21.97
2022-10-13T12:44:25.482Z,21.91
2022-10-13T12:46:56.197Z,21.75
2022-10-13T12:49:24.542Z,21.70
2022-10-13T12:52:03.747Z,21.79
2022-10-13T12:54:33.718Z,21.59
2022-10-13T12:57:05.818Z,21.56
2022-10-13T12:59:34.470Z,21.52
2022-10-13T13:02:03.929Z,21.56
2022-10-13T13:04:32.865Z,21.57
2022-10-13T13:07:01.785Z,21.55
2022-10-13T13:09:29.406Z,21.47
2022-10-13T13:12:05.371Z,21.22
2022-10-13T13:14:44.645Z,21.09
2022-10-13T13:17:13.044Z,21.10
2022-10-13T13:19:42.300Z,21.11
2022-10-13T13:22:10.687Z,21.00
2022-10-13T13:24:40.890Z,20.83
2022-10-13T13:27:18.900Z,20.88
2022-10-13T13:29:45.864Z,20.66
2022-10-13T13:32:15.297Z,20.56
2022-10-13T13:34:42.460Z,20.69
2022-10-13T13:37:17.077Z,20.58
2022-10-13T13:39:45.223Z,20.73
2022-10-13T13:42:14.560Z,20.79
2022-10-13T13:44:43.296Z,20.82
2022-10-13T13:47:28.051Z,20.75
2022-10-13T13:49:56.847Z,20.79
2022-10-13T13:52:25.789Z,20.77
2022-10-13T13:54:52.782Z,20.72
2022-10-13T13:57:20.564Z,20.88
2022-10-13T13:59:47.525Z,20.78
2022-10-13T14:02:18.920Z,20.86
2022-10-13T14:04:45.912Z,20.91
2022-10-13T14:07:13.818Z,20.82
2022-10-13T14:09:40.535Z,20.97
2022-10-13T14:12:09.856Z,20.88
2022-10-13T14:14:36.464Z,20.88
2022-10-13T14:17:04.139Z,20.88
2022-10-13T14:19:31.876Z,20.96
2022-10-13T14:21:59.172Z,20.84
2022-10-13T14:24:25.961Z,20.88
2022-10-13T14:26:52.658Z,20.76
2022-10-13T14:29:19.309Z,20.63
2022-10-13T14:31:46.081Z,20.64
2022-10-13T14:34:12.796Z,20.59
2022-10-13T14:36:40.156Z,20.54
2022-10-13T14:39:06.813Z,20.41
2022-10-13T14:41:33.592Z,20.35
2022-10-13T14:44:00.354Z,20.31
2022-10-13T14:46:27.048Z,20.25
2022-10-13T14:48:55.738Z,20.27
2022-10-13T14:51:22.348Z,20.26
2022-10-13T14:53:48.979Z,20.25
2022-10-13T14:56:21.986Z,20.24
2022-10-13T14:58:58.443Z,20.31
2022-10-13T15:01:29.725Z,20.28
2022-10-13T15:03:56.735Z,20.32
2022-10-13T15:06:25.162Z,20.30
2022-10-13T15:08:52.233Z,20.27
2022-10-13T15:11:21.401Z,20.34
2022-10-13T15:13:48.748Z,20.40
2022-10-13T15:16:18.245Z,20.38
2022-10-13T15:18:45.202Z,20.31
2022-10-13T15:21:12.017Z,20.28
2022-10-13T15:23:39.486Z,20.23
2022-10-13T15:26:06.564Z,20.15
2022-10-13T15:28:41.338Z,20.17
2022-10-13T15:31:11.050Z,20.15
2022-10-13T15:33:37.880Z,20.09
2022-10-13T15:36:04.636Z,19.99
2022-10-13T15:38:31.297Z,19.94
2022-10-13T15:41:03.104Z,19.88
2022-10-13T15:43:29.806Z,19.77
2022-10-13T15:46:01.072Z,19.76
2022-10-13T15:48:27.963Z,19.78
2022-10-13T15:50:54.623Z,19.66
2022-10-13T15:53:21.379Z,19.62
2022-10-13T15:55:48.622Z,19.62
2022-10-13T15:58:16.305Z,19.63
2022-10-13T16:00:43.363Z,19.59
2022-10-13T16:03:14.985Z,19.54
2022-10-13T16:05:43.044Z,19.46
2022-10-13T16:08:09.738Z,19.44
2022-10-13T16:10:42.523Z,19.39
2022-10-13T16:13:12.643Z,19.39
2022-10-13T16:15:39.398Z,19.40
2022-10-13T16:18:06.097Z,19.41
2022-10-13T16:20:35.164Z,19.36
2022-10-13T16:23:02.060Z,19.36
2022-10-13T16:25:29.458Z,19.32
2022-10-13T16:27:56.528Z,19.29
2022-10-13T16:30:23.187Z,19.32
2022-10-13T16:32:49.876Z,19.32
2022-10-13T16:35:16.652Z,19.24
2022-10-13T16:37:43.321Z,19.27
2022-10-13T16:40:10.511Z,19.29
2022-10-13T16:42:37.864Z,19.26
2022-10-13T16:45:07.925Z,19.20
2022-10-13T16:47:34.636Z,19.19
2022-10-13T16:50:01.708Z,19.19
2022-10-13T16:52:29.326Z,19.16
2022-10-13T16:54:55.945Z,19.09
2022-10-13T16:57:22.852Z,19.10
2022-10-13T16:59:50.474Z,19.15
2022-10-13T17:02:17.089Z,19.13
2022-10-13T17:04:43.835Z,19.14
2022-10-13T17:07:10.509Z,19.13
2022-10-13T17:09:37.265Z,19.15
2022-10-13T17:12:05.277Z,19.11
2022-10-13T17:14:31.909Z,19.07
2022-10-13T17:16:58.531Z,19.13
2022-10-13T17:19:25.377Z,19.13
2022-10-13T17:21:51.998Z,19.15
2022-10-13T17:24:18.761Z,18.99
2022-10-13T17:26:45.599Z,19.00
2022-10-13T17:29:12.351Z,19.00
2022-10-13T17:31:39.000Z,18.89
2022-10-13T17:34:06.351Z,18.97
2022-10-13T17:36:34.099Z,18.90
2022-10-13T17:39:09.982Z,18.90
2022-10-13T17:41:40.480Z,18.95
2022-10-13T17:44:07.124Z,18.90
2022-10-13T17:46:38.680Z,18.95
2022-10-13T17:49:11.497Z,18.89
2022-10-13T17:51:40.069Z,18.99
2022-10-13T17:54:12.947Z,18.90
2022-10-13T17:56:41.356Z,18.75
2022-10-13T17:59:09.739Z,18.77
2022-10-13T18:01:36.545Z,18.80
2022-10-13T18:04:06.384Z,18.79
2022-10-13T18:06:40.430Z,18.72
2022-10-13T18:09:13.399Z,18.80
2022-10-13T18:11:43.346Z,18.80
2022-10-13T18:14:14.157Z,18.74
2022-10-13T18:16:43.189Z,18.74
2022-10-13T18:19:13.122Z,18.62
2022-10-13T18:21:39.904Z,18.68
2022-10-13T18:24:06.946Z,18.56
2022-10-13T18:26:37.055Z,18.59
2022-10-13T18:29:06.078Z,18.59
2022-10-13T18:31:36.599Z,18.57
2022-10-13T18:34:05.752Z,18.52
2022-10-13T18:36:38.042Z,18.57
2022-10-13T18:39:16.560Z,18.42
2022-10-13T18:41:46.998Z,18.34
2022-10-13T18:44:13.998Z,18.42
2022-10-13T18:46:41.768Z,18.47
2022-10-13T18:49:12.545Z,18.41
2022-10-13T18:51:41.866Z,18.50
2022-10-13T18:54:08.694Z,18.42
2022-10-13T18:56:38.785Z,18.41
2022-10-13T18:59:07.472Z,18.43
2022-10-13T19:01:36.091Z,18.31
2022-10-13T19:04:03.707Z,18.37
2022-10-13T19:06:32.138Z,18.44
2022-10-13T19:09:01.924Z,18.48
2022-10-13T19:11:29.709Z,18.52
2022-10-13T19:13:57.963Z,18.51
2022-10-13T19:16:26.173Z,18.55
2022-10-13T19:18:53.149Z,18.51
2022-10-13T19:21:21.420Z,18.56
2022-10-13T19:23:49.327Z,18.55
2022-10-13T19:26:20.845Z,18.60
2022-10-13T19:28:47.592Z,18.62
2022-10-13T19:31:20.383Z,18.64
2022-10-13T19:33:48.437Z,18.64
2022-10-13T19:36:42.303Z,18.64
2022-10-13T19:39:16.608Z,18.62
2022-10-13T19:41:44.630Z,18.54
2022-10-13T19:44:11.780Z,18.54
2022-10-13T19:46:40.055Z,18.57
2022-10-13T19:49:06.983Z,18.59
2022-10-13T19:51:35.534Z,18.51
2022-10-13T19:54:02.195Z,18.54
2022-10-13T19:56:31.583Z,18.53
2022-10-13T19:58:59.337Z,18.47
2022-10-13T20:01:26.689Z,18.49
2022-10-13T20:03:54.131Z,18.48
2022-10-13T20:06:21.393Z,18.45
2022-10-13T20:08:48.259Z,18.41
2022-10-13T20:11:23.450Z,18.42
2022-10-13T20:13:52.605Z,18.40
2022-10-13T20:16:22.641Z,18.32
2022-10-13T20:18:58.150Z,18.32
2022-10-13T20:21:27.155Z,18.31
2022-10-13T20:23:54.417Z,18.33
2022-10-13T20:26:21.667Z,18.33
2022-10-13T20:28:49.962Z,18.34
2022-10-13T20:31:18.444Z,18.34
2022-10-13T20:33:46.804Z,18.33
2022-10-13T20:36:16.010Z,18.25
2022-10-13T20:38:42.957Z,18.25
2022-10-13T20:41:15.925Z,18.24
2022-10-13T20:43:42.680Z,18.26
2022-10-13T20:46:09.359Z,18.26
2022-10-13T20:48:58.173Z,18.25
2022-10-13T20:51:24.748Z,18.27
2022-10-13T20:53:51.992Z,18.27
2022-10-13T20:56:23.824Z,18.27
2022-10-13T20:58:51.092Z,18.29
2022-10-13T21:01:19.037Z,18.31
2022-10-13T21:03:46.309Z,18.22
2022-10-13T21:06:14.285Z,18.34
2022-10-13T21:08:41.043Z,18.34
2022-10-13T21:11:12.840Z,18.34
2022-10-13T21:13:41.231Z,18.35
2022-10-13T21:16:14.720Z,18.34
2022-10-13T21:18:45.749Z,18.31
2022-10-13T21:21:12.432Z,18.31
2022-10-13T21:23:40.323Z,18.28
2022-10-13T21:26:08.821Z,18.27
2022-10-13T21:28:39.204Z,18.32
2022-10-13T21:31:11.229Z,18.34
2022-10-13T21:33:39.526Z,18.34
2022-10-13T21:36:12.332Z,18.45
2022-10-13T21:38:41.825Z,18.39
2022-10-13T21:41:10.935Z,18.44
2022-10-13T21:43:37.705Z,18.37
2022-10-13T21:46:15.312Z,18.47
2022-10-13T21:48:43.848Z,18.50
2022-10-13T21:51:20.400Z,18.45
2022-10-13T21:53:52.552Z,18.48
2022-10-13T21:56:20.077Z,18.44
2022-10-13T21:58:47.286Z,18.50
2022-10-13T22:01:13.983Z,18.45
2022-10-13T22:03:41.623Z,18.42
2022-10-13T22:06:18.299Z,18.60
2022-10-13T22:08:47.157Z,18.57
2022-10-13T22:11:15.525Z,18.45
2022-10-13T22:13:42.407Z,18.51
2022-10-13T22:16:18.910Z,18.48
2022-10-13T22:18:46.358Z,18.51
2022-10-13T22:21:16.223Z,18.40
2022-10-13T22:23:43.322Z,18.44
2022-10-13T22:26:10.614Z,18.53
2022-10-13T22:28:38.647Z,18.54
2022-10-13T22:31:06.871Z,18.55
2022-10-13T22:33:35.259Z,18.52
2022-10-13T22:36:14.451Z,18.40
2022-10-13T22:38:41.647Z,18.51
2022-10-13T22:41:09.085Z,18.53
2022-10-13T22:43:36.616Z,18.47
2022-10-13T22:46:16.972Z,18.46
2022-10-13T22:48:43.947Z,18.47
2022-10-13T22:51:14.066Z,18.50
2022-10-13T22:53:40.814Z,18.50
2022-10-13T22:56:14.477Z,18.44
2022-10-13T22:58:41.200Z,18.42
2022-10-13T23:01:10.777Z,18.47
2022-10-13T23:03:38.595Z,18.46
2022-10-13T23:06:06.975Z,18.38
2022-10-13T23:08:34.244Z,18.43
2022-10-13T23:11:01.006Z,18.48
2022-10-13T23:13:27.712Z,18.43
2022-10-13T23:16:09.129Z,18.46
2022-10-13T23:18:38.142Z,18.40
2022-10-13T23:21:10.048Z,18.48
2022-10-13T23:23:36.936Z,18.50
2022-10-13T23:26:11.713Z,18.51
2022-10-13T23:28:38.662Z,18.54
2022-10-13T23:31:09.434Z,18.52
2022-10-13T23:33:36.181Z,18.55
2022-10-13T23:36:05.214Z,18.57
2022-10-13T23:38:32.525Z,18.62
2022-10-13T23:41:04.803Z,18.60
2022-10-13T23:43:31.430Z,18.66
2022-10-13T23:45:58.306Z,18.63
2022-10-13T23:48:25.209Z,18.69
2022-10-13T23:50:52.127Z,18.69
2022-10-13T23:53:19.185Z,18.69
2022-10-13T23:55:46.284Z,18.70
2022-10-13T23:58:14.214Z,18.68
